createdAt,value
2023-05-03T00:00:09.293Z,93.56
2023-05-03T00:02:36.303Z,94.05
2023-05-03T00:05:04.742Z,94.25
2023-05-03T00:07:32.552Z,94.38
2023-05-03T00:09:59.499Z,94.69
2023-05-03T00:12:26.369Z,94.73
2023-05-03T00:14:53.089Z,94.29
2023-05-03T00:17:21.152Z,92.80
2023-05-03T00:19:47.824Z,93.57
2023-05-03T00:22:14.516Z,94.89
2023-05-03T00:24:41.277Z,94.35
2023-05-03T00:27:07.928Z,94.88
2023-05-03T00:29:34.648Z,94.35
2023-05-03T00:32:01.381Z,94.43
2023-05-03T00:34:29.438Z,95.03
2023-05-03T00:36:56.120Z,93.50
2023-05-03T00:39:22.959Z,92.93
2023-05-03T00:41:49.628Z,94.64
2023-05-03T00:44:16.301Z,94.37
2023-05-03T00:46:43.091Z,94.25
2023-05-03T00:49:09.867Z,95.06
2023-05-03T00:51:37.974Z,95.14
2023-05-03T00:54:04.683Z,94.82
2023-05-03T00:56:37.882Z,95.86
2023-05-03T00:59:11.339Z,94.85
2023-05-03T01:01:38.029Z,94.92
2023-05-03T01:04:05.262Z,94.56
2023-05-03T01:06:34.999Z,93.17
2023-05-03T01:09:04.169Z,95.08
2023-05-03T01:11:34.301Z,96.00
2023-05-03T01:14:02.788Z,95.06
2023-05-03T01:16:33.362Z,95.92
2023-05-03T01:19:01.011Z,96.35
2023-05-03T01:21:27.710Z,96.20
2023-05-03T01:23:57.018Z,95.49
2023-05-03T01:26:25.669Z,94.45
2023-05-03T01:28:52.466Z,94.77
2023-05-03T01:31:22.729Z,93.88
2023-05-03T01:33:54.194Z,95.95
2023-05-03T01:36:22.202Z,95.83
2023-05-03T01:38:48.904Z,94.25
2023-05-03T01:41:15.599Z,94.24
2023-05-03T01:43:43.681Z,95.29
2023-05-03T01:46:10.392Z,94.97
2023-05-03T01:48:37.125Z,94.48
2023-05-03T01:51:03.987Z,95.32
2023-05-03T01:53:30.665Z,95.58
2023-05-03T01:55:57.369Z,94.95
2023-05-03T01:58:24.130Z,95.38
2023-05-03T02:00:52.221Z,95.05
2023-05-03T02:03:18.958Z,94.75
2023-05-03T02:05:45.645Z,94.85
2023-05-03T02:08:12.339Z,94.56
2023-05-03T02:10:39.050Z,95.43
2023-05-03T02:13:05.727Z,94.61
2023-05-03T02:15:32.642Z,95.06
2023-05-03T02:18:00.880Z,95.35
2023-05-03T02:20:27.671Z,95.47
2023-05-03T02:22:54.513Z,96.16
2023-05-03T02:25:21.238Z,96.46
2023-05-03T02:27:47.904Z,96.60
2023-05-03T02:30:14.624Z,97.06
2023-05-03T02:32:41.349Z,96.79
2023-05-03T02:35:10.393Z,95.90
2023-05-03T02:37:37.044Z,95.86
2023-05-03T02:40:04.579Z,95.73
2023-05-03T02:42:31.456Z,95.49
2023-05-03T02:44:58.198Z,95.74
2023-05-03T02:47:24.926Z,95.80
2023-05-03T02:49:51.608Z,95.12
2023-05-03T02:52:19.684Z,95.52
2023-05-03T02:54:46.436Z,96.01
2023-05-03T02:57:13.146Z,95.72
2023-05-03T02:59:39.846Z,95.19
2023-05-03T03:02:06.846Z,96.19
2023-05-03T03:04:33.756Z,95.42
2023-05-03T03:07:00.448Z,95.69
2023-05-03T03:09:28.487Z,95.70
2023-05-03T03:11:55.163Z,95.55
2023-05-03T03:14:21.858Z,95.54
2023-05-03T03:16:51.092Z,95.71
2023-05-03T03:19:17.780Z,95.84
2023-05-03T03:21:44.551Z,96.06
2023-05-03T03:24:11.397Z,96.15
2023-05-03T03:26:39.444Z,95.89
2023-05-03T03:29:06.093Z,95.66
2023-05-03T03:31:32.835Z,95.69
2023-05-03T03:33:59.552Z,95.23
2023-05-03T03:36:26.218Z,95.93
2023-05-03T03:38:52.991Z,95.29
2023-05-03T03:41:19.714Z,95.64
2023-05-03T03:43:47.740Z,94.92
2023-05-03T03:46:14.600Z,95.40
2023-05-03T03:48:41.351Z,95.13
2023-05-03T03:51:10.624Z,95.62
2023-05-03T03:53:37.329Z,95.41
2023-05-03T03:56:04.525Z,94.76
2023-05-03T03:58:31.397Z,95.28
2023-05-03T04:00:59.538Z,95.05
2023-05-03T04:03:26.318Z,95.17
2023-05-03T04:05:53.018Z,95.52
2023-05-03T04:08:19.761Z,95.14
2023-05-03T04:10:46.438Z,94.10
2023-05-03T04:13:13.128Z,94.12
2023-05-03T04:15:39.817Z,95.26
2023-05-03T04:18:08.017Z,93.69
2023-05-03T04:20:34.878Z,94.38
2023-05-03T04:23:01.724Z,93.27
2023-05-03T04:25:28.411Z,92.66
2023-05-03T04:27:55.125Z,92.23
2023-05-03T04:30:21.885Z,91.43
2023-05-03T04:32:48.596Z,91.98
2023-05-03T04:35:16.789Z,91.34
2023-05-03T04:37:43.514Z,91.48
2023-05-03T04:40:10.776Z,92.80
2023-05-03T04:42:37.521Z,92.74
2023-05-03T04:45:04.884Z,92.50
2023-05-03T04:47:31.579Z,92.82
2023-05-03T04:49:58.338Z,92.20
2023-05-03T04:52:26.453Z,93.41
2023-05-03T04:54:53.114Z,93.07
2023-05-03T04:57:19.818Z,92.09
2023-05-03T04:59:46.686Z,90.78
2023-05-03T05:02:13.353Z,88.13
2023-05-03T05:04:40.122Z,90.12
2023-05-03T05:07:06.868Z,91.28
2023-05-03T05:09:35.037Z,90.99
2023-05-03T05:12:01.700Z,90.05
2023-05-03T05:14:30.106Z,88.32
2023-05-03T05:16:56.805Z,86.87
2023-05-03T05:19:23.544Z,86.26
2023-05-03T05:21:51.187Z,86.14
2023-05-03T05:24:17.876Z,85.22
2023-05-03T05:26:46.008Z,82.88
2023-05-03T05:29:12.785Z,82.79
2023-05-03T05:31:39.491Z,83.83
2023-05-03T05:34:06.184Z,83.70
2023-05-03T05:36:32.896Z,83.75
2023-05-03T05:38:59.756Z,83.64
2023-05-03T05:41:26.489Z,82.04
2023-05-03T05:43:54.577Z,83.03
2023-05-03T05:46:21.364Z,82.08
2023-05-03T05:48:48.315Z,83.77
2023-05-03T05:51:15.050Z,83.35
2023-05-03T05:53:41.762Z,81.06
2023-05-03T05:56:08.466Z,80.85
2023-05-03T05:58:35.258Z,80.13
2023-05-03T06:01:03.382Z,80.79
2023-05-03T06:03:30.240Z,80.03
2023-05-03T06:05:57.021Z,78.56
2023-05-03T06:08:23.762Z,76.08
2023-05-03T06:10:50.461Z,74.36
2023-05-03T06:13:17.232Z,73.75
2023-05-03T06:15:43.916Z,71.84
2023-05-03T06:18:12.053Z,75.09
2023-05-03T06:20:38.868Z,74.19
2023-05-03T06:23:05.610Z,72.96
2023-05-03T06:25:32.318Z,67.78
2023-05-03T06:27:59.004Z,68.80
2023-05-03T06:30:25.801Z,68.01
2023-05-03T06:32:52.677Z,66.13
2023-05-03T06:35:20.857Z,66.51
2023-05-03T06:37:47.577Z,67.41
2023-05-03T06:40:14.335Z,66.57
2023-05-03T06:42:41.024Z,64.89
2023-05-03T06:45:08.566Z,65.35
2023-05-03T06:47:35.322Z,65.18
2023-05-03T06:50:02.383Z,64.24
2023-05-03T06:52:30.661Z,61.86
2023-05-03T06:54:57.559Z,62.20
2023-05-03T06:57:24.709Z,63.47
2023-05-03T06:59:52.260Z,61.80
2023-05-03T07:02:19.098Z,58.46
2023-05-03T07:04:45.898Z,57.82
2023-05-03T07:07:12.689Z,58.08
2023-05-03T07:09:43.636Z,55.56
2023-05-03T07:12:10.873Z,55.78
2023-05-03T07:14:38.504Z,57.88
2023-05-03T07:17:05.196Z,53.38
2023-05-03T07:19:32.414Z,51.28
2023-05-03T07:21:59.103Z,53.52
2023-05-03T07:24:25.850Z,53.21
2023-05-03T07:26:54.160Z,49.43
2023-05-03T07:29:20.922Z,49.41
2023-05-03T07:31:47.643Z,48.58
2023-05-03T07:34:14.322Z,49.51
2023-05-03T07:36:41.211Z,48.39
2023-05-03T07:39:07.996Z,49.77
2023-05-03T07:41:34.819Z,49.79
2023-05-03T07:44:03.065Z,50.70
2023-05-03T07:46:29.800Z,51.65
2023-05-03T07:48:57.846Z,54.54
2023-05-03T07:51:24.625Z,51.16
2023-05-03T07:53:51.325Z,50.81
2023-05-03T07:56:18.058Z,47.53
2023-05-03T07:58:46.696Z,49.03
2023-05-03T08:01:16.785Z,51.73
2023-05-03T08:03:43.764Z,49.87
2023-05-03T08:06:10.738Z,50.53
2023-05-03T08:08:37.479Z,50.57
2023-05-03T08:11:04.358Z,50.41
2023-05-03T08:13:31.065Z,48.05
2023-05-03T08:15:57.829Z,51.11
2023-05-03T08:18:26.415Z,51.57
2023-05-03T08:20:53.088Z,50.92
2023-05-03T08:23:19.742Z,50.79
2023-05-03T08:25:46.489Z,48.32
2023-05-03T08:28:13.183Z,47.18
2023-05-03T08:30:40.026Z,48.87
2023-05-03T08:33:06.881Z,50.22
2023-05-03T08:35:35.026Z,47.87
2023-05-03T08:38:01.832Z,47.02
2023-05-03T08:40:28.601Z,42.87
2023-05-03T08:42:55.665Z,38.12
2023-05-03T08:45:22.377Z,46.79
2023-05-03T08:47:53.739Z,46.24
2023-05-03T08:50:20.491Z,41.22
2023-05-03T08:52:48.620Z,42.98
2023-05-03T08:55:15.328Z,47.51
2023-05-03T08:57:42.004Z,35.91
2023-05-03T09:00:09.594Z,39.01
2023-05-03T09:02:36.528Z,41.18
2023-05-03T09:05:03.568Z,40.37
2023-05-03T09:07:30.522Z,40.11
2023-05-03T09:09:58.743Z,40.95
2023-05-03T09:12:35.277Z,35.85
2023-05-03T09:15:02.039Z,41.44
2023-05-03T09:17:28.746Z,45.37
2023-05-03T09:19:56.744Z,41.57
2023-05-03T09:22:25.379Z,36.26
2023-05-03T09:24:52.188Z,36.36
2023-05-03T09:27:20.411Z,38.28
2023-05-03T09:29:47.253Z,45.05
2023-05-03T09:32:14.046Z,38.12
2023-05-03T09:34:40.753Z,38.84
2023-05-03T09:37:07.540Z,41.66
2023-05-03T09:39:34.209Z,41.03
2023-05-03T09:42:10.161Z,42.32
2023-05-03T09:44:42.484Z,36.46
2023-05-03T09:47:09.562Z,36.81
2023-05-03T09:49:36.219Z,42.90
2023-05-03T09:52:02.949Z,39.63
2023-05-03T09:54:29.890Z,41.06
2023-05-03T09:56:56.590Z,40.91
2023-05-03T09:59:23.328Z,41.35
2023-05-03T10:01:52.504Z,44.67
2023-05-03T10:04:19.409Z,44.99
2023-05-03T10:06:47.335Z,44.37
2023-05-03T10:09:15.639Z,49.08
2023-05-03T10:11:43.368Z,48.54
2023-05-03T10:14:10.267Z,49.64
2023-05-03T10:16:37.870Z,50.36
2023-05-03T10:19:08.703Z,50.92
2023-05-03T10:21:47.796Z,50.70
2023-05-03T10:24:14.985Z,50.53
2023-05-03T10:26:41.798Z,53.93
2023-05-03T10:29:41.619Z,55.34
2023-05-03T10:32:30.774Z,55.85
2023-05-03T10:35:03.588Z,55.71
2023-05-03T10:37:30.708Z,56.81
2023-05-03T10:40:00.607Z,55.97
2023-05-03T10:42:27.350Z,55.75
2023-05-03T10:44:54.318Z,55.71
2023-05-03T10:47:21.860Z,56.36
2023-05-03T10:49:49.761Z,56.34
2023-05-03T10:52:51.603Z,56.48
2023-05-03T10:55:19.331Z,56.61
2023-05-03T10:57:46.325Z,57.01
2023-05-03T11:00:14.225Z,56.57
2023-05-03T11:02:43.025Z,55.74
2023-05-03T11:05:09.770Z,56.49
2023-05-03T11:07:36.495Z,56.37
2023-05-03T11:10:17.237Z,56.60
2023-05-03T11:12:43.901Z,58.46
2023-05-03T11:15:11.416Z,56.40
2023-05-03T11:17:38.327Z,56.78
2023-05-03T11:20:06.956Z,57.38
2023-05-03T11:22:33.650Z,55.86
2023-05-03T11:25:00.361Z,56.75
2023-05-03T11:27:28.528Z,56.61
2023-05-03T11:29:55.259Z,56.67
2023-05-03T11:32:22.167Z,54.40
2023-05-03T11:34:48.927Z,55.99
2023-05-03T11:37:16.078Z,54.43
2023-05-03T11:39:42.785Z,56.83
2023-05-03T11:42:09.441Z,55.69
2023-05-03T11:44:37.519Z,53.77
2023-05-03T11:47:04.486Z,53.45
2023-05-03T11:49:31.301Z,52.32
2023-05-03T11:51:58.085Z,54.28
2023-05-03T11:54:26.848Z,54.51
2023-05-03T11:56:55.876Z,54.17
2023-05-03T11:59:34.160Z,54.05
2023-05-03T12:02:02.969Z,54.10
2023-05-03T12:04:30.120Z,54.10
2023-05-03T12:06:58.015Z,53.79
2023-05-03T12:09:26.980Z,53.48
2023-05-03T12:11:55.173Z,52.38
2023-05-03T12:14:22.780Z,51.85
2023-05-03T12:16:51.297Z,52.76
2023-05-03T12:19:25.852Z,52.41
2023-05-03T12:22:04.506Z,52.18
2023-05-03T12:24:39.000Z,57.59
2023-05-03T12:27:08.423Z,58.48
2023-05-03T12:29:35.854Z,57.40
2023-05-03T12:32:02.787Z,57.80
2023-05-03T12:34:35.043Z,58.79
2023-05-03T12:37:04.449Z,60.56
2023-05-03T12:39:32.968Z,60.30
2023-05-03T12:44:29.882Z,59.09
2023-05-03T12:47:00.708Z,57.56
2023-05-03T12:49:28.055Z,58.32
2023-05-03T12:52:22.275Z,58.41
2023-05-03T12:54:43.140Z,60.26
2023-05-03T12:57:13.784Z,59.64
2023-05-03T12:59:43.072Z,58.97
2023-05-03T13:07:13.351Z,57.52
2023-05-03T13:12:27.386Z,59.22
2023-05-03T13:14:54.219Z,58.78
2023-05-03T13:17:20.936Z,58.34
2023-05-03T13:19:47.681Z,57.65
2023-05-03T13:22:15.798Z,57.65
2023-05-03T13:24:43.035Z,58.52
2023-05-03T13:27:09.747Z,57.48
2023-05-03T13:29:36.415Z,56.75
2023-05-03T13:32:03.402Z,57.04
2023-05-03T13:34:30.141Z,55.65
2023-05-03T13:36:56.860Z,55.21
2023-05-03T13:39:25.286Z,55.24
2023-05-03T13:41:52.076Z,53.73
2023-05-03T13:44:18.783Z,51.94
2023-05-03T13:46:45.512Z,48.55
2023-05-03T13:49:12.608Z,45.01
2023-05-03T13:51:39.615Z,46.53
2023-05-03T13:54:06.455Z,47.10
2023-05-03T13:56:35.923Z,43.91
2023-05-03T13:59:02.629Z,44.08
2023-05-03T14:01:29.611Z,44.87
2023-05-03T14:03:56.897Z,44.99
2023-05-03T14:06:23.674Z,46.76
2023-05-03T14:08:50.513Z,51.34
2023-05-03T14:11:18.314Z,52.05
2023-05-03T14:13:56.543Z,50.88
2023-05-03T14:16:35.806Z,46.13
2023-05-03T14:19:06.482Z,46.29
2023-05-03T14:21:33.199Z,44.14
2023-05-03T14:24:00.527Z,44.18
2023-05-03T14:26:27.227Z,46.41
2023-05-03T14:28:55.319Z,46.89
2023-05-03T14:31:22.083Z,46.11
2023-05-03T14:33:48.747Z,45.92
2023-05-03T14:36:15.455Z,45.88
2023-05-03T14:38:42.168Z,45.36
2023-05-03T14:41:08.838Z,48.58
2023-05-03T14:43:35.530Z,47.04
2023-05-03T14:46:03.661Z,47.47
2023-05-03T14:48:30.457Z,49.17
2023-05-03T14:50:57.202Z,50.44
2023-05-03T14:53:23.869Z,51.72
2023-05-03T14:55:50.570Z,54.81
2023-05-03T14:58:17.248Z,54.95
2023-05-03T15:00:44.010Z,55.56
2023-05-03T15:03:12.543Z,56.85
2023-05-03T15:05:43.553Z,57.46
2023-05-03T15:08:10.262Z,57.31
2023-05-03T15:10:38.397Z,56.15
2023-05-03T15:13:05.155Z,56.71
2023-05-03T15:15:31.925Z,57.14
2023-05-03T15:17:58.656Z,57.74
2023-05-03T15:20:26.860Z,56.81
2023-05-03T15:22:53.574Z,53.55
2023-05-03T15:25:20.497Z,52.48
2023-05-03T15:27:47.281Z,51.10
2023-05-03T15:30:14.495Z,53.58
2023-05-03T15:32:41.241Z,53.04
2023-05-03T15:35:08.559Z,53.30
2023-05-03T15:37:37.154Z,53.12
2023-05-03T15:40:04.534Z,51.81
2023-05-03T15:42:31.558Z,53.76
2023-05-03T15:44:58.217Z,52.29
2023-05-03T15:47:24.916Z,53.45
2023-05-03T15:49:51.638Z,53.88
2023-05-03T15:52:18.338Z,55.09
2023-05-03T15:54:46.413Z,55.50
2023-05-03T15:57:13.146Z,55.25
2023-05-03T15:59:39.888Z,57.67
2023-05-03T16:02:06.770Z,58.26
2023-05-03T16:04:33.682Z,59.16
2023-05-03T16:07:00.419Z,60.14
2023-05-03T16:09:27.160Z,61.50
2023-05-03T16:11:55.375Z,62.62
2023-05-03T16:14:22.089Z,64.13
2023-05-03T16:16:50.481Z,64.25
2023-05-03T16:19:17.322Z,65.38
2023-05-03T16:21:44.036Z,66.36
2023-05-03T16:24:10.783Z,67.92
2023-05-03T16:26:37.485Z,67.60
2023-05-03T16:29:05.601Z,67.85
2023-05-03T16:31:32.377Z,68.94
2023-05-03T16:33:59.131Z,70.59
2023-05-03T16:36:26.006Z,70.78
2023-05-03T16:38:52.718Z,71.12
2023-05-03T16:41:19.448Z,71.83
2023-05-03T16:43:46.225Z,71.93
2023-05-03T16:46:14.376Z,72.76
2023-05-03T16:48:41.136Z,73.30
2023-05-03T16:51:07.852Z,73.36
2023-05-03T16:53:34.527Z,74.28
2023-05-03T16:56:01.250Z,74.37
2023-05-03T16:58:27.964Z,75.45
2023-05-03T17:00:54.676Z,76.12
2023-05-03T17:03:22.953Z,77.25
2023-05-03T17:05:49.841Z,77.36
2023-05-03T17:08:16.551Z,78.38
2023-05-03T17:10:43.220Z,79.13
2023-05-03T17:13:09.988Z,79.41
2023-05-03T17:15:36.715Z,80.07
2023-05-03T17:18:04.576Z,80.52
2023-05-03T17:20:34.331Z,80.92
2023-05-03T17:23:01.081Z,81.68
2023-05-03T17:25:27.906Z,82.36
2023-05-03T17:27:54.601Z,82.68
2023-05-03T17:30:21.728Z,83.19
2023-05-03T17:32:48.604Z,83.55
2023-05-03T17:35:15.346Z,83.83
2023-05-03T17:37:43.408Z,84.04
2023-05-03T17:40:10.766Z,84.14
2023-05-03T17:42:37.434Z,84.30
2023-05-03T17:45:05.045Z,84.51
2023-05-03T17:47:31.789Z,84.96
2023-05-03T17:49:58.489Z,85.19
2023-05-03T17:52:25.220Z,85.47
2023-05-03T17:54:53.363Z,85.67
2023-05-03T17:57:20.060Z,85.69
2023-05-03T17:59:47.472Z,86.04
2023-05-03T18:02:14.202Z,85.94
2023-05-03T18:04:40.895Z,85.95
2023-05-03T18:07:07.556Z,86.41
2023-05-03T18:09:34.250Z,86.46
2023-05-03T18:12:02.338Z,86.36
2023-05-03T18:14:28.996Z,86.74
2023-05-03T18:16:55.669Z,86.77
2023-05-03T18:19:22.722Z,86.77
2023-05-03T18:21:51.549Z,87.21
2023-05-03T18:24:18.312Z,87.44
2023-05-03T18:26:45.008Z,87.57
2023-05-03T18:29:13.110Z,87.63
2023-05-03T18:31:39.927Z,87.47
2023-05-03T18:34:06.794Z,87.34
2023-05-03T18:36:33.491Z,87.12
2023-05-03T18:39:00.192Z,86.90
2023-05-03T18:41:26.886Z,86.93
2023-05-03T18:43:53.548Z,86.52
2023-05-03T18:46:21.743Z,86.54
2023-05-03T18:48:48.461Z,86.39
2023-05-03T18:51:15.205Z,86.59
2023-05-03T18:53:42.004Z,86.92
2023-05-03T18:56:08.703Z,87.08
2023-05-03T18:58:35.360Z,86.88
2023-05-03T19:01:02.197Z,86.84
2023-05-03T19:03:30.262Z,86.95
2023-05-03T19:05:59.605Z,86.72
2023-05-03T19:08:26.345Z,87.19
2023-05-03T19:10:53.002Z,87.05
2023-05-03T19:13:19.753Z,86.95
2023-05-03T19:15:46.488Z,87.11
2023-05-03T19:18:14.771Z,87.30
2023-05-03T19:20:44.167Z,87.73
2023-05-03T19:23:10.843Z,88.48
2023-05-03T19:25:37.590Z,88.22
2023-05-03T19:28:04.588Z,88.52
2023-05-03T19:30:31.485Z,88.40
2023-05-03T19:32:58.285Z,88.92
2023-05-03T19:35:25.128Z,88.94
2023-05-03T19:37:53.243Z,89.15
2023-05-03T19:40:19.930Z,89.38
2023-05-03T19:42:46.652Z,89.31
2023-05-03T19:45:13.401Z,89.61
2023-05-03T19:47:40.196Z,89.68
2023-05-03T19:50:07.622Z,89.78
2023-05-03T19:52:34.548Z,89.63
2023-05-03T19:55:02.675Z,89.57
2023-05-03T19:57:29.364Z,89.46
2023-05-03T19:59:57.642Z,89.30
2023-05-03T20:02:25.132Z,89.24
2023-05-03T20:04:52.106Z,89.31
2023-05-03T20:07:18.826Z,89.34
2023-05-03T20:09:45.516Z,89.23
2023-05-03T20:12:13.538Z,89.05
2023-05-03T20:14:40.209Z,89.09
2023-05-03T20:17:06.859Z,89.01
2023-05-03T20:19:33.532Z,89.18
2023-05-03T20:22:00.230Z,89.22
2023-05-03T20:24:26.916Z,89.19
2023-05-03T20:26:53.554Z,89.75
2023-05-03T20:29:21.608Z,89.66
2023-05-03T20:31:50.403Z,90.08
2023-05-03T20:34:17.172Z,90.33
2023-05-03T20:36:43.952Z,90.37
2023-05-03T20:39:10.616Z,90.37
2023-05-03T20:41:37.308Z,90.00
2023-05-03T20:44:04.228Z,90.45
2023-05-03T20:46:32.431Z,90.58
2023-05-03T20:48:59.153Z,90.38
2023-05-03T20:51:25.994Z,90.16
2023-05-03T20:53:52.807Z,90.24
2023-05-03T20:56:19.481Z,90.42
2023-05-03T20:58:46.189Z,90.08
2023-05-03T21:01:12.951Z,90.24
2023-05-03T21:03:41.246Z,90.22
2023-05-03T21:06:08.284Z,90.26
2023-05-03T21:08:35.119Z,90.48
2023-05-03T21:11:01.799Z,90.15
2023-05-03T21:13:28.510Z,90.29
2023-05-03T21:15:55.161Z,90.14
2023-05-03T21:18:21.855Z,89.67
2023-05-03T21:20:49.905Z,89.55
2023-05-03T21:23:16.523Z,89.70
2023-05-03T21:25:43.211Z,89.91
2023-05-03T21:28:09.941Z,89.89
2023-05-03T21:30:36.604Z,90.00
2023-05-03T21:33:03.585Z,89.74
2023-05-03T21:35:30.396Z,90.20
2023-05-03T21:37:58.430Z,89.84
2023-05-03T21:40:25.087Z,90.15
2023-05-03T21:42:51.873Z,90.14
2023-05-03T21:45:18.748Z,90.22
2023-05-03T21:47:45.547Z,90.10
2023-05-03T21:50:12.282Z,90.40
2023-05-03T21:52:38.971Z,90.12
2023-05-03T21:55:08.293Z,90.25
2023-05-03T21:57:35.001Z,90.10
2023-05-03T22:00:01.968Z,90.16
2023-05-03T22:02:28.987Z,90.00
2023-05-03T22:04:55.900Z,90.10
2023-05-03T22:07:22.585Z,90.08
2023-05-03T22:09:49.274Z,90.28
2023-05-03T22:14:47.012Z,90.56
2023-05-03T22:17:13.716Z,90.61
2023-05-03T22:19:40.403Z,90.70
2023-05-03T22:22:07.107Z,90.92
2023-05-03T22:24:33.744Z,91.16
2023-05-03T22:27:00.414Z,91.48
2023-05-03T22:29:28.496Z,91.78
2023-05-03T22:31:55.340Z,91.72
2023-05-03T22:34:22.102Z,92.13
2023-05-03T22:36:48.831Z,92.20
2023-05-03T22:39:15.494Z,92.11
2023-05-03T22:41:42.212Z,92.35
2023-05-03T22:44:08.853Z,92.55
2023-05-03T22:46:36.925Z,92.32
2023-05-03T22:49:03.683Z,92.88
2023-05-03T22:51:31.117Z,92.82
2023-05-03T22:53:57.866Z,93.22
2023-05-03T22:56:24.554Z,93.18
2023-05-03T22:58:51.290Z,93.39
2023-05-03T23:01:18.042Z,93.57
2023-05-03T23:03:46.386Z,93.68
2023-05-03T23:06:13.312Z,93.68
2023-05-03T23:08:39.973Z,94.23
2023-05-03T23:11:06.758Z,94.36
2023-05-03T23:13:33.562Z,94.21
2023-05-03T23:16:00.827Z,94.16
2023-05-03T23:18:27.611Z,94.00
2023-05-03T23:20:55.610Z,94.02
2023-05-03T23:23:22.282Z,93.77
2023-05-03T23:25:49.008Z,93.68
2023-05-03T23:28:15.690Z,93.55
2023-05-03T23:30:43.077Z,93.47
2023-05-03T23:33:10.378Z,93.25
2023-05-03T23:35:37.509Z,93.37
2023-05-03T23:38:05.583Z,93.04
2023-05-03T23:40:32.340Z,92.74
2023-05-03T23:42:59.005Z,92.97
2023-05-03T23:45:25.693Z,92.81
2023-05-03T23:47:52.445Z,92.58
2023-05-03T23:50:19.333Z,92.58
2023-05-03T23:52:46.007Z,92.52
2023-05-03T23:55:14.156Z,92.33
2023-05-03T23:57:40.896Z,92.26
